Airfield :
LOGIN :

Register | Disclaimer

   EN    FR    IT 

 










Legend :    VFR   Marginal VFR   IFR   Intensive IFR   Very Intensive IFR
Visi :
Ceiling :
>= 8 km
>= 3000ft
5 to 8 km
1000 to 3000 ft
1500m to 5 km
500 to 1000 ft
800 to 1500m
200 to 500 ft
< 800m
< 200 ft
Symbols :   Thunderstorms  Fog  Heavy snow  Heavy precipitations  Wind > 20 kt
SIGMETs :     Misc.  Thunderstorms  Icing  Turbulence  Mountain Waves  Volcanic Ashes







- Airport Elevation : 268 ft
- IATA code : BFS
- Download approach charts


EGAA - Belfast Aldergrove

CURRENT METAR :
  • 262120Z 26016KT 9999 FEW033 SCT041 BKN049 12/07 Q1009

EXPIRED METARs :
  • 262050Z 25014KT 9999 FEW024 BKN048 12/08 Q1009
  • 262020Z 26015KT 9999 FEW035 BKN049 12/08 Q1009
  • 261950Z 26018KT 9999 FEW026 BKN049 12/08 Q1009
  • 261920Z 25018KT 9999 FEW025 12/08 Q1009
  • 261850Z 25017KT 9999 SCT036 13/08 Q1010

TAF TAF EGAA
Valid from the 26 at 18:00 until the 27 at 18:00 UTC


261659Z 2618/2718 27018G28KT 9999 SCT030
PROB30
TEMPO 2618/2624 8000 SHRA
BECMG 2621/2624 29012KT
TEMPO 2700/2710 7000 SHRA BKN012
TEMPO 2710/2718 7000 SHRA
PROB30
TEMPO 2710/2718 3000 +SHRA
No reported NOTAMs for that airfield.
1 SIGMET reported for the Scottish FIR (EGPX) :
 
Severe mountain waves
EGPX SIGMET 02 VALID 261900/262300 EGRR
EGPX SCOTTISH FIR SEV MTW FCST SE OF LINE N5523 W00711 - N5832 E00227 FL030/150 STNR NC=



MET'MAP, your aeronautical weather chart ! - Copyright ORBIFLY December 2007 - Disclaimer

ORBIFLY MET'MAP TEAM :

Programming & Development : Alexandra Zaïnal
Concept & Development : Baudouin d'Aumeries
Co-Development & Prog : Marc-Olivier Méhu
Technical & hardware support : Manuel Goepfert

Contact : metmap@orbifly.com




SOURCES & CREDITS :

   NOAA